createdAt,value
2023-03-13T00:01:20.984Z,7.50
2023-03-13T00:03:50.751Z,7.50
2023-03-13T00:06:19.306Z,7.50
2023-03-13T00:08:47.778Z,7.50
2023-03-13T00:11:17.020Z,7.50
2023-03-13T00:13:45.589Z,7.60
2023-03-13T00:16:15.732Z,7.60
2023-03-13T00:18:47.792Z,7.60
2023-03-13T00:21:18.377Z,7.70
2023-03-13T00:23:47.001Z,7.70
2023-03-13T00:26:17.365Z,7.70
2023-03-13T00:28:46.106Z,7.70
2023-03-13T00:31:16.780Z,7.70
2023-03-13T00:33:46.577Z,7.60
2023-03-13T00:36:18.003Z,7.70
2023-03-13T00:38:46.735Z,7.80
2023-03-13T00:41:16.720Z,7.80
2023-03-13T00:43:45.932Z,7.80
2023-03-13T00:46:15.845Z,7.80
2023-03-13T00:48:44.096Z,7.80
2023-03-13T00:51:12.903Z,7.90
2023-03-13T00:53:42.480Z,7.90
2023-03-13T00:56:13.275Z,7.90
2023-03-13T00:58:43.062Z,7.90
2023-03-13T01:01:13.169Z,7.90
2023-03-13T01:03:42.848Z,8.10
2023-03-13T01:06:14.502Z,8.00
2023-03-13T01:08:44.104Z,8.00
2023-03-13T01:11:13.956Z,8.00
2023-03-13T01:13:42.797Z,8.00
2023-03-13T01:16:13.099Z,8.00
2023-03-13T01:18:43.158Z,8.10
2023-03-13T01:21:11.975Z,8.10
2023-03-13T01:23:40.128Z,8.20
2023-03-13T01:26:10.337Z,8.10
2023-03-13T01:28:39.029Z,8.10
2023-03-13T01:31:13.368Z,8.10
2023-03-13T01:33:41.506Z,8.20
2023-03-13T01:36:10.137Z,8.20
2023-03-13T01:38:38.479Z,8.20
2023-03-13T01:41:07.612Z,8.20
2023-03-13T01:43:38.570Z,8.10
2023-03-13T01:46:16.785Z,8.10
2023-03-13T01:48:50.944Z,8.20
2023-03-13T01:51:23.939Z,8.20
2023-03-13T01:53:57.746Z,8.20
2023-03-13T01:56:30.846Z,8.20
2023-03-13T01:59:01.371Z,8.20
2023-03-13T02:01:30.360Z,8.20
2023-03-13T02:03:59.834Z,8.20
2023-03-13T02:06:31.364Z,8.20
2023-03-13T02:09:05.368Z,8.30
2023-03-13T02:11:44.476Z,8.30
2023-03-13T02:14:46.841Z,8.30
2023-03-13T02:17:15.577Z,8.40
2023-03-13T02:19:46.133Z,8.40
2023-03-13T02:22:25.475Z,8.40
2023-03-13T02:25:00.939Z,8.50
2023-03-13T02:27:30.532Z,8.50
2023-03-13T02:29:59.714Z,8.50
2023-03-13T02:32:29.622Z,8.50
2023-03-13T02:35:00.586Z,8.50
2023-03-13T02:37:31.428Z,8.50
2023-03-13T02:40:04.176Z,8.50
2023-03-13T02:42:33.940Z,8.60
2023-03-13T02:45:02.641Z,8.60
2023-03-13T02:47:30.733Z,8.60
2023-03-13T02:49:59.132Z,8.50
2023-03-13T02:52:31.926Z,8.50
2023-03-13T02:55:02.868Z,8.50
2023-03-13T02:57:32.054Z,8.60
2023-03-13T03:00:01.564Z,8.50
2023-03-13T03:02:29.708Z,8.50
2023-03-13T03:04:57.779Z,8.50
2023-03-13T03:07:25.979Z,8.60
2023-03-13T03:09:54.344Z,8.60
2023-03-13T03:12:22.527Z,8.50
2023-03-13T03:14:50.672Z,8.50
2023-03-13T03:17:20.550Z,8.40
2023-03-13T03:19:48.680Z,8.50
2023-03-13T03:22:16.823Z,8.40
2023-03-13T03:24:44.874Z,8.50
2023-03-13T03:27:13.168Z,8.50
2023-03-13T03:29:41.243Z,8.40
2023-03-13T03:32:09.544Z,8.40
2023-03-13T03:34:39.345Z,8.30
2023-03-13T03:37:07.701Z,8.30
2023-03-13T03:39:36.688Z,8.30
2023-03-13T03:42:05.519Z,8.30
2023-03-13T03:44:33.643Z,8.20
2023-03-13T03:47:02.072Z,8.20
2023-03-13T03:49:30.177Z,8.20
2023-03-13T03:51:59.909Z,8.20
2023-03-13T03:54:28.433Z,8.20
2023-03-13T03:56:56.834Z,8.20
2023-03-13T03:59:24.967Z,8.20
2023-03-13T04:01:53.161Z,8.10
2023-03-13T04:04:21.441Z,8.10
2023-03-13T04:06:49.557Z,8.10
2023-03-13T04:09:19.321Z,8.10
2023-03-13T04:11:47.424Z,8.20
2023-03-13T04:14:15.975Z,8.10
2023-03-13T04:16:44.149Z,8.10
2023-03-13T04:19:12.645Z,8.10
2023-03-13T04:21:40.738Z,8.20
2023-03-13T04:24:09.598Z,8.10
2023-03-13T04:26:39.149Z,8.20
2023-03-13T04:29:07.399Z,8.20
2023-03-13T04:31:35.463Z,8.20
2023-03-13T04:34:03.810Z,8.20
2023-03-13T04:36:31.876Z,8.20
2023-03-13T04:38:59.997Z,8.20
2023-03-13T04:41:28.509Z,8.20
2023-03-13T04:43:57.958Z,8.20
2023-03-13T04:46:26.392Z,8.20
2023-03-13T04:48:54.515Z,8.20
2023-03-13T04:51:22.876Z,8.20
2023-03-13T04:53:51.198Z,8.10
2023-03-13T04:56:41.070Z,8.10
2023-03-13T04:59:13.147Z,8.10
2023-03-13T05:01:42.062Z,8.10
2023-03-13T05:04:10.772Z,8.20
2023-03-13T05:06:39.002Z,8.10
2023-03-13T05:09:07.183Z,8.10
2023-03-13T05:11:36.088Z,8.00
2023-03-13T05:14:05.042Z,8.10
2023-03-13T05:16:34.543Z,8.10
2023-03-13T05:19:02.755Z,8.20
2023-03-13T05:21:31.165Z,8.10
2023-03-13T05:23:59.293Z,8.10
2023-03-13T05:26:27.487Z,8.10
2023-03-13T05:28:56.143Z,8.10
2023-03-13T05:31:24.435Z,8.10
2023-03-13T05:33:54.269Z,8.00
2023-03-13T05:36:22.385Z,8.00
2023-03-13T05:38:50.753Z,8.00
2023-03-13T05:41:18.869Z,8.00
2023-03-13T05:43:47.437Z,8.00
2023-03-13T05:46:15.622Z,8.00
2023-03-13T05:48:45.877Z,8.00
2023-03-13T05:51:15.828Z,8.00
2023-03-13T05:53:44.023Z,8.00
2023-03-13T05:56:12.201Z,8.00
2023-03-13T05:58:40.405Z,8.10
2023-03-13T06:01:09.511Z,8.00
2023-03-13T06:03:38.354Z,8.10
2023-03-13T06:06:07.178Z,8.00
2023-03-13T06:08:37.067Z,8.00
2023-03-13T06:11:05.410Z,8.10
2023-03-13T06:13:33.757Z,8.00
2023-03-13T06:16:02.219Z,8.10
2023-03-13T06:18:30.374Z,8.00
2023-03-13T06:21:00.703Z,8.10
2023-03-13T06:23:29.060Z,8.10
2023-03-13T06:25:58.625Z,8.10
2023-03-13T06:28:26.788Z,8.10
2023-03-13T06:30:55.382Z,8.20
2023-03-13T06:33:23.918Z,8.20
2023-03-13T06:35:56.591Z,8.20
2023-03-13T06:38:25.844Z,8.20
2023-03-13T06:40:54.095Z,8.30
2023-03-13T06:43:23.980Z,8.40
2023-03-13T06:45:52.472Z,8.30
2023-03-13T06:48:23.065Z,8.40
2023-03-13T06:50:51.989Z,8.50
2023-03-13T06:53:22.184Z,8.50
2023-03-13T06:55:50.353Z,8.60
2023-03-13T06:58:31.433Z,8.70
2023-03-13T07:01:07.468Z,8.80
2023-03-13T07:03:36.018Z,8.70
2023-03-13T07:06:05.608Z,8.80
2023-03-13T07:08:34.331Z,8.90
2023-03-13T07:11:05.094Z,9.00
2023-03-13T07:13:33.711Z,9.20
2023-03-13T07:16:04.412Z,9.20
2023-03-13T07:18:33.339Z,9.20
2023-03-13T07:21:05.355Z,9.40
2023-03-13T07:23:35.753Z,9.40
2023-03-13T07:26:06.493Z,9.40
2023-03-13T07:28:37.552Z,9.50
2023-03-13T07:31:09.627Z,9.50
2023-03-13T07:33:37.846Z,9.60
2023-03-13T07:36:06.917Z,9.50
2023-03-13T07:38:35.708Z,9.60
2023-03-13T07:41:04.870Z,9.60
2023-03-13T07:43:33.888Z,9.70
2023-03-13T07:46:03.615Z,9.70
2023-03-13T07:48:34.872Z,9.70
2023-03-13T07:51:04.013Z,9.70
2023-03-13T07:53:32.654Z,9.70
2023-03-13T07:56:02.419Z,9.70
2023-03-13T07:58:33.487Z,9.70
2023-03-13T08:01:01.877Z,9.70
2023-03-13T08:03:30.517Z,9.80
2023-03-13T08:06:01.208Z,9.80
2023-03-13T08:08:30.324Z,9.90
2023-03-13T08:11:02.256Z,9.90
2023-03-13T08:13:30.550Z,9.90
2023-03-13T08:16:07.800Z,10.00
2023-03-13T08:18:37.296Z,10.10
2023-03-13T08:21:09.375Z,10.10
2023-03-13T08:23:38.270Z,10.20
2023-03-13T08:26:08.992Z,10.30
2023-03-13T08:28:38.618Z,10.30
2023-03-13T08:31:11.479Z,10.30
2023-03-13T08:33:40.568Z,10.40
2023-03-13T08:36:18.718Z,10.40
2023-03-13T08:38:48.021Z,10.40
2023-03-13T08:41:17.544Z,10.40
2023-03-13T08:43:46.569Z,10.50
2023-03-13T08:46:15.415Z,10.60
2023-03-13T08:48:44.496Z,10.60
2023-03-13T08:51:16.218Z,10.60
2023-03-13T08:53:45.233Z,10.80
2023-03-13T08:56:18.072Z,10.70
2023-03-13T08:58:50.031Z,10.80
2023-03-13T09:01:19.037Z,10.80
2023-03-13T09:03:47.558Z,10.80
2023-03-13T09:06:17.444Z,10.80
2023-03-13T09:08:45.799Z,10.80
2023-03-13T09:11:15.951Z,10.90
2023-03-13T09:13:46.132Z,11.00
2023-03-13T09:16:16.596Z,11.10
2023-03-13T09:18:45.857Z,11.10
2023-03-13T09:21:17.459Z,11.10
2023-03-13T09:23:45.632Z,11.10
2023-03-13T09:26:14.092Z,11.10
2023-03-13T09:28:43.524Z,11.20
2023-03-13T09:31:13.000Z,11.20
2023-03-13T09:33:41.820Z,11.10
2023-03-13T09:36:11.604Z,11.20
2023-03-13T09:38:42.335Z,11.20
2023-03-13T09:41:24.378Z,11.20
2023-03-13T09:43:59.927Z,11.30
2023-03-13T09:46:33.128Z,11.40
2023-03-13T09:49:05.157Z,11.40
2023-03-13T09:51:36.601Z,11.40
2023-03-13T09:54:10.138Z,11.50
2023-03-13T09:56:45.196Z,11.60
2023-03-13T09:59:20.131Z,11.70
2023-03-13T10:01:50.706Z,11.70
2023-03-13T10:04:41.846Z,11.90
2023-03-13T10:07:12.489Z,12.00
2023-03-13T10:09:42.766Z,12.30
2023-03-13T10:12:20.759Z,12.40
2023-03-13T10:14:58.595Z,12.30
2023-03-13T10:17:33.674Z,12.30
2023-03-13T10:20:10.834Z,12.30
2023-03-13T10:22:39.765Z,12.40
2023-03-13T10:25:20.816Z,12.40
2023-03-13T10:27:51.339Z,12.50
2023-03-13T10:30:25.744Z,12.40
2023-03-13T10:32:59.202Z,12.50
2023-03-13T10:35:33.860Z,12.50
2023-03-13T10:38:06.318Z,12.60
2023-03-13T10:40:37.131Z,12.60
2023-03-13T10:43:07.181Z,12.80
2023-03-13T10:45:38.243Z,12.80
2023-03-13T10:48:13.992Z,12.90
2023-03-13T10:50:45.062Z,12.90
2023-03-13T10:53:27.363Z,12.80
2023-03-13T10:55:59.626Z,13.00
2023-03-13T10:58:34.632Z,12.90
2023-03-13T11:01:17.547Z,13.10
2023-03-13T11:03:47.709Z,13.10
2023-03-13T11:06:28.191Z,13.10
2023-03-13T11:09:13.491Z,13.10
2023-03-13T11:11:52.029Z,13.10
2023-03-13T11:14:22.053Z,13.20
2023-03-13T11:16:52.591Z,13.30
2023-03-13T11:19:31.880Z,13.30
2023-03-13T11:22:12.530Z,13.30
2023-03-13T11:24:46.121Z,13.30
2023-03-13T11:27:28.920Z,13.40
2023-03-13T11:30:17.700Z,13.30
2023-03-13T11:32:52.652Z,13.30
2023-03-13T11:35:35.540Z,13.50
2023-03-13T11:38:09.199Z,13.80
2023-03-13T11:40:46.729Z,14.00
2023-03-13T11:43:45.425Z,14.30
2023-03-13T11:46:42.209Z,14.40
2023-03-13T11:49:37.152Z,14.40
2023-03-13T11:52:14.689Z,14.50
2023-03-13T11:55:04.405Z,14.60
2023-03-13T11:57:38.158Z,14.80
2023-03-13T12:00:22.963Z,14.90
2023-03-13T12:02:56.099Z,15.20
2023-03-13T12:05:26.001Z,15.30
2023-03-13T12:07:58.952Z,15.30
2023-03-13T12:10:30.953Z,15.30
2023-03-13T12:13:06.136Z,15.40
2023-03-13T12:15:39.137Z,15.80
2023-03-13T12:18:16.588Z,15.70
2023-03-13T12:20:50.417Z,15.60
2023-03-13T12:23:20.879Z,15.70
2023-03-13T12:25:54.293Z,15.90
2023-03-13T12:28:34.311Z,16.20
2023-03-13T12:31:12.948Z,16.00
2023-03-13T12:33:45.603Z,16.20
2023-03-13T12:36:19.515Z,16.30
2023-03-13T12:38:56.061Z,16.40
2023-03-13T12:41:27.481Z,16.40
2023-03-13T12:44:08.241Z,16.50
2023-03-13T12:46:45.207Z,16.60
2023-03-13T12:49:53.225Z,16.60
2023-03-13T12:52:46.947Z,16.60
2023-03-13T12:55:52.927Z,16.60
2023-03-13T12:58:45.781Z,16.80
2023-03-13T13:01:19.982Z,16.80
2023-03-13T13:03:55.327Z,17.00
2023-03-13T13:06:24.698Z,16.90
2023-03-13T13:09:09.898Z,16.70
2023-03-13T13:11:50.149Z,16.70
2023-03-13T13:14:55.584Z,16.70
2023-03-13T13:17:35.549Z,16.80
2023-03-13T13:20:42.196Z,16.90
2023-03-13T13:23:40.591Z,16.80
2023-03-13T13:26:48.713Z,16.70
2023-03-13T13:29:56.477Z,16.90
2023-03-13T13:32:39.292Z,17.10
2023-03-13T13:35:21.494Z,17.20
2023-03-13T13:37:50.188Z,17.30
2023-03-13T13:40:27.985Z,17.40
2023-03-13T13:42:57.767Z,17.50
2023-03-13T13:45:33.782Z,17.50
2023-03-13T13:48:36.784Z,17.60
2023-03-13T13:51:28.831Z,17.70
2023-03-13T13:54:00.348Z,17.60
2023-03-13T13:56:42.863Z,17.60
2023-03-13T13:59:41.587Z,17.60
2023-03-13T14:02:19.645Z,17.60
2023-03-13T14:04:55.015Z,17.60
2023-03-13T14:07:31.189Z,17.40
2023-03-13T14:10:14.416Z,17.60
2023-03-13T14:12:48.570Z,17.50
2023-03-13T14:15:19.396Z,17.70
2023-03-13T14:17:50.747Z,17.70
2023-03-13T14:20:27.706Z,17.60
2023-03-13T14:23:01.176Z,17.60
2023-03-13T14:25:41.757Z,17.60
2023-03-13T14:28:20.629Z,17.30
2023-03-13T14:30:50.547Z,17.50
2023-03-13T14:33:19.690Z,17.30
2023-03-13T14:35:49.165Z,17.50
2023-03-13T14:38:20.343Z,17.50
2023-03-13T14:40:48.916Z,17.50
2023-03-13T14:43:24.595Z,17.30
2023-03-13T14:45:53.618Z,17.40
2023-03-13T14:48:24.739Z,17.30
2023-03-13T14:51:13.902Z,17.30
2023-03-13T14:53:56.356Z,17.30
2023-03-13T14:56:34.482Z,17.30
2023-03-13T14:59:21.085Z,17.20
2023-03-13T15:02:00.633Z,17.20
2023-03-13T15:04:59.720Z,17.20
2023-03-13T15:07:29.841Z,17.20
2023-03-13T15:09:58.327Z,17.20
2023-03-13T15:12:26.505Z,17.00
2023-03-13T15:14:56.079Z,17.00
2023-03-13T15:17:26.259Z,17.10
2023-03-13T15:19:55.960Z,17.00
2023-03-13T15:22:29.131Z,16.90
2023-03-13T15:25:06.095Z,16.90
2023-03-13T15:27:35.865Z,16.90
2023-03-13T15:30:06.521Z,17.00
2023-03-13T15:32:37.644Z,17.00
2023-03-13T15:35:23.331Z,17.00
2023-03-13T15:37:51.982Z,17.10
2023-03-13T15:40:20.951Z,16.90
2023-03-13T15:42:49.083Z,16.80
2023-03-13T15:45:18.839Z,16.90
2023-03-13T15:47:48.089Z,16.90
2023-03-13T15:50:18.090Z,16.90
2023-03-13T15:52:46.684Z,16.80
2023-03-13T15:55:15.842Z,16.70
2023-03-13T15:57:47.092Z,16.80
2023-03-13T16:00:20.248Z,16.60
2023-03-13T16:02:48.800Z,16.60
2023-03-13T16:05:17.271Z,16.40
2023-03-13T16:07:45.479Z,16.50
2023-03-13T16:10:20.005Z,16.40
2023-03-13T16:12:48.209Z,16.30
2023-03-13T16:15:16.480Z,16.20
2023-03-13T16:17:46.105Z,16.20
2023-03-13T16:20:17.065Z,16.30
2023-03-13T16:22:45.533Z,16.20
2023-03-13T16:25:14.444Z,16.20
2023-03-13T16:27:43.508Z,16.00
2023-03-13T16:30:18.060Z,16.00
2023-03-13T16:32:48.162Z,16.00
2023-03-13T16:35:16.696Z,16.00
2023-03-13T16:37:45.280Z,15.90
2023-03-13T16:40:18.802Z,16.00
2023-03-13T16:42:47.409Z,15.80
2023-03-13T16:45:16.496Z,15.90
2023-03-13T16:47:45.600Z,15.80
2023-03-13T16:50:22.737Z,15.70
2023-03-13T16:52:51.523Z,15.80
2023-03-13T16:55:20.363Z,15.60
2023-03-13T16:57:48.941Z,15.60
2023-03-13T17:00:19.404Z,15.60
2023-03-13T17:02:48.588Z,15.50
2023-03-13T17:05:18.603Z,15.60
2023-03-13T17:07:49.806Z,15.40
2023-03-13T17:10:20.497Z,15.50
2023-03-13T17:12:49.637Z,15.40
2023-03-13T17:15:18.666Z,15.30
2023-03-13T17:17:51.609Z,15.30
2023-03-13T17:20:22.926Z,15.20
2023-03-13T17:22:51.487Z,15.20
2023-03-13T17:25:19.887Z,15.30
2023-03-13T17:27:48.587Z,15.20
2023-03-13T17:30:21.031Z,15.10
2023-03-13T17:32:50.548Z,15.20
2023-03-13T17:35:21.541Z,15.10
2023-03-13T17:37:50.398Z,15.00
2023-03-13T17:40:21.011Z,15.00
2023-03-13T17:42:49.585Z,14.90
2023-03-13T17:45:18.823Z,14.90
2023-03-13T17:47:49.239Z,14.90
2023-03-13T17:50:21.792Z,14.80
2023-03-13T17:52:50.493Z,14.80
2023-03-13T17:55:19.362Z,14.80
2023-03-13T17:57:48.826Z,14.70
2023-03-13T18:00:23.470Z,14.70
2023-03-13T18:02:52.339Z,14.60
2023-03-13T18:05:22.191Z,14.60
2023-03-13T18:07:50.813Z,14.50
2023-03-13T18:10:21.330Z,14.50
2023-03-13T18:12:50.755Z,14.60
2023-03-13T18:15:19.872Z,14.50
2023-03-13T18:17:48.319Z,14.50
2023-03-13T18:20:19.670Z,14.40
2023-03-13T18:22:49.377Z,14.30
2023-03-13T18:25:18.046Z,14.40
2023-03-13T18:27:46.554Z,14.20
2023-03-13T18:30:17.455Z,14.30
2023-03-13T18:32:45.758Z,14.30
2023-03-13T18:35:14.833Z,14.30
2023-03-13T18:37:43.961Z,14.20
2023-03-13T18:40:18.800Z,14.30
2023-03-13T18:42:47.459Z,14.20
2023-03-13T18:45:16.680Z,14.20
2023-03-13T18:47:45.269Z,14.20
2023-03-13T18:50:25.168Z,14.30
2023-03-13T18:52:55.319Z,14.10
2023-03-13T18:55:26.000Z,14.20
2023-03-13T18:57:54.658Z,14.10
2023-03-13T19:00:25.249Z,14.10
2023-03-13T19:02:53.611Z,14.10
2023-03-13T19:05:21.810Z,14.10
2023-03-13T19:07:50.247Z,14.10
2023-03-13T19:10:21.466Z,14.00
2023-03-13T19:12:52.067Z,13.90
2023-03-13T19:15:21.977Z,14.00
2023-03-13T19:17:50.137Z,13.90
2023-03-13T19:20:20.711Z,14.00
2023-03-13T19:22:49.131Z,13.90
2023-03-13T19:25:17.619Z,13.90
2023-03-13T19:27:45.973Z,13.90
2023-03-13T19:30:20.655Z,13.90
2023-03-13T19:32:48.943Z,13.80
2023-03-13T19:35:19.098Z,13.80
2023-03-13T19:37:47.740Z,13.80
2023-03-13T19:40:20.347Z,13.70
2023-03-13T19:42:48.626Z,13.70
2023-03-13T19:45:20.796Z,13.70
2023-03-13T19:47:49.420Z,13.70
2023-03-13T19:50:20.735Z,13.60
2023-03-13T19:52:49.269Z,13.60
2023-03-13T19:55:17.987Z,13.60
2023-03-13T19:57:46.485Z,13.60
2023-03-13T20:00:21.711Z,13.60
2023-03-13T20:02:52.050Z,13.60
2023-03-13T20:05:28.332Z,13.60
2023-03-13T20:07:57.141Z,13.50
2023-03-13T20:10:25.631Z,13.50
2023-03-13T20:12:54.309Z,13.50
2023-03-13T20:15:24.064Z,13.50
2023-03-13T20:17:52.623Z,13.50
2023-03-13T20:20:21.154Z,13.50
2023-03-13T20:22:49.857Z,13.50
2023-03-13T20:25:18.130Z,13.50
2023-03-13T20:27:46.409Z,13.50
2023-03-13T20:30:14.901Z,13.50
2023-03-13T20:32:56.993Z,13.50
2023-03-13T20:35:27.173Z,13.50
2023-03-13T20:37:57.962Z,13.50
2023-03-13T20:40:26.606Z,13.50
2023-03-13T20:42:54.815Z,13.50
2023-03-13T20:45:23.022Z,13.40
2023-03-13T20:47:53.003Z,13.50
2023-03-13T20:50:21.259Z,13.40
2023-03-13T20:52:50.251Z,13.50
2023-03-13T20:55:18.728Z,13.50
2023-03-13T20:57:46.959Z,13.40
2023-03-13T21:00:18.528Z,13.40
2023-03-13T21:02:49.061Z,13.40
2023-03-13T21:05:18.835Z,13.40
2023-03-13T21:07:47.965Z,13.40
2023-03-13T21:10:18.094Z,13.30
2023-03-13T21:12:46.474Z,13.30
2023-03-13T21:15:15.214Z,13.30
2023-03-13T21:17:43.502Z,13.30
2023-03-13T21:20:13.134Z,13.30
2023-03-13T21:22:44.124Z,13.30
2023-03-13T21:25:13.247Z,13.30
2023-03-13T21:27:44.067Z,13.20
2023-03-13T21:30:16.055Z,13.30
2023-03-13T21:32:44.348Z,13.20
2023-03-13T21:35:13.790Z,13.30
2023-03-13T21:37:44.300Z,13.30
2023-03-13T21:40:13.612Z,13.20
2023-03-13T21:42:42.083Z,13.20
2023-03-13T21:45:11.857Z,13.20
2023-03-13T21:47:40.781Z,13.20
2023-03-13T21:50:11.088Z,13.10
2023-03-13T21:52:41.446Z,13.20
2023-03-13T21:55:13.265Z,13.10
2023-03-13T21:57:42.130Z,13.10
2023-03-13T22:00:14.427Z,13.10
2023-03-13T22:02:43.642Z,13.10
2023-03-13T22:05:12.558Z,13.00
2023-03-13T22:07:41.033Z,13.00
2023-03-13T22:10:12.649Z,13.00
2023-03-13T22:12:41.168Z,13.00
2023-03-13T22:15:10.714Z,13.00
2023-03-13T22:17:39.195Z,13.00
2023-03-13T22:20:10.461Z,12.90
2023-03-13T22:22:38.588Z,12.90
2023-03-13T22:25:07.442Z,12.90
2023-03-13T22:27:37.380Z,12.80
2023-03-13T22:30:06.621Z,12.70
2023-03-13T22:32:34.819Z,12.70
2023-03-13T22:35:03.386Z,12.80
2023-03-13T22:37:31.924Z,12.70
2023-03-13T22:40:00.370Z,12.70
2023-03-13T22:42:28.796Z,12.60
2023-03-13T22:44:58.570Z,12.60
2023-03-13T22:47:26.989Z,12.60
2023-03-13T22:49:55.170Z,12.60
2023-03-13T22:52:29.245Z,12.50
2023-03-13T22:54:57.638Z,12.50
2023-03-13T22:57:25.857Z,12.40
2023-03-13T22:59:54.086Z,12.40
2023-03-13T23:02:23.838Z,12.40
2023-03-13T23:04:52.001Z,12.30
2023-03-13T23:07:21.341Z,12.30
2023-03-13T23:09:49.477Z,12.30
2023-03-13T23:12:18.017Z,12.30
2023-03-13T23:14:46.602Z,12.30
2023-03-13T23:17:15.313Z,12.30
2023-03-13T23:19:45.318Z,12.30
2023-03-13T23:22:17.878Z,12.30
2023-03-13T23:24:46.706Z,12.30
2023-03-13T23:27:14.902Z,12.30
2023-03-13T23:29:43.050Z,12.30
2023-03-13T23:32:11.580Z,12.30
2023-03-13T23:34:39.717Z,12.20
2023-03-13T23:37:09.314Z,12.30
2023-03-13T23:39:37.684Z,12.20
2023-03-13T23:42:06.104Z,12.20
2023-03-13T23:44:34.632Z,12.20
2023-03-13T23:47:06.160Z,12.20
2023-03-13T23:49:34.600Z,12.20
2023-03-13T23:52:02.989Z,12.20
2023-03-13T23:54:32.609Z,12.10
2023-03-13T23:57:00.736Z,12.10
2023-03-13T23:59:28.919Z,12.00
